• Join FlightAware (Why Join?)
  • Login
  • US Flag 
02:19AM EDT


 

Airport Tracker/Info


-or-


 

Live Flight TrackerFlight Track Log ✈ SWA118 ✈ 05-Jul-2013 ✈ KMDW - KDEN

Flight Track Log - Related Links

Times and Time Zones

All times are in EDT time to prevent confusion due to time zone crossing. See the SWA118 flight status page for this flight to view local times or setup timezone preferences in your user account.

Time Position Orientation Groundspeed Altitude Reporting Facility
EDT Latitude Longitude Course Direction KTS MPH feet Rate Location/Type
07:25PM 41.7730 -87.7690 234° Southwest 157 181 1,600  Level FlightAware
07:25PM 41.7680 -87.7820 243° Southwest 175 201 2,000 1,380 Climbing FlightAware
07:25PM 41.7600 -87.8160 253° West 223 257 2,600 2,160 Climbing FlightAware
07:26PM 41.7490 -87.8530 248° West 232 267 4,100 3,000 Climbing FlightAware
07:26PM 41.7450 -87.8690 251° West 241 277 4,600 2,640 Climbing FlightAware
07:26PM 41.7420 -87.8930 260° West 255 293 5,300 2,820 Climbing FlightAware
07:27PM 41.7410 -87.9400 268° West 269 310 6,700 2,940 Climbing FlightAware
07:27PM 41.7410 -87.9870 270° West 280 322 8,100 2,940 Climbing FlightAware
07:28PM 41.7500 -88.0340 284° West 295 339 9,500 3,120 Climbing FlightAware
07:28PM 41.7750 -88.0950 299° West 302 348 11,500 2,880 Climbing FlightAware
07:29PM 41.7800 -88.1290 281° West 295 339 12,200 1,680 Climbing FlightAware
07:29PM 41.7810 -88.2010 271° West 331 381 13,100 1,680 Climbing FlightAware
07:30PM 41.7810 -88.3330 270° West 380 437 14,900 2,220 Climbing FlightAware
07:31PM 41.7800 -88.4580 269° West 385 443 17,400 2,520 Climbing FlightAware
07:32PM 41.7800 -88.5690 270° West 397 457 19,100 2,220 Climbing FlightAware
07:33PM 41.7790 -88.6740 269° West 406 467 20,700 2,160 Climbing FlightAware
07:33PM 41.7780 -88.7600 269° West 412 474 21,900 2,100 Climbing FlightAware
07:34PM 41.7770 -88.8630 269° West 418 481 23,300 1,800 Climbing FlightAware
07:35PM 41.7770 -88.9820 270° West 429 494 24,500 1,620 Climbing FlightAware
07:35PM 41.7710 -89.0900 266° West 436 502 25,600 1,500 Climbing FlightAware
07:36PM 41.7610 -89.2040 263° West 443 510 26,600 1,440 Climbing FlightAware
07:37PM 41.7530 -89.3140 264° West 449 517 27,600 1,380 Climbing FlightAware
07:37PM 41.7420 -89.4420 263° West 457 526 28,600 1,320 Climbing FlightAware
07:38PM 41.7340 -89.5440 264° West 460 529 29,400 1,500 Climbing FlightAware
07:39PM 41.7250 -89.6560 264° West 458 527 30,500 1,500 Climbing FlightAware
07:39PM 41.7160 -89.7680 264° West 458 527 31,400 1,200 Climbing FlightAware
07:40PM 41.7060 -89.8810 263° West 463 533 32,100 900 Climbing FlightAware
07:41PM 41.6980 -89.9860 264° West 471 542 32,600 780 Climbing FlightAware
07:41PM 41.6870 -90.1130 263° West 477 549 33,200 840 Climbing FlightAware
07:42PM 41.6770 -90.2310 264° West 482 555 33,800 960 Climbing FlightAware
07:43PM 41.6660 -90.3610 264° West 482 555 34,600 1,200 Climbing FlightAware
07:43PM 41.6540 -90.4880 263° West 476 548 35,600 1,020 Climbing FlightAware
07:44PM 41.6450 -90.5970 264° West 472 543 36,000 240 Climbing FlightAware
07:45PM 41.6330 -90.7290 263° West 468 539 36,000  Level FlightAware
07:45PM 41.6240 -90.8270 263° West 468 539 36,000  Level FlightAware
07:46PM 41.6130 -90.9470 263° West 468 539 36,000  Level FlightAware
07:47PM 41.6010 -91.0690 263° West 469 540 36,000  Level FlightAware
07:47PM 41.5920 -91.1660 263° West 468 539 36,000  Level FlightAware
07:48PM 41.5810 -91.2860 263° West 467 537 36,000  Level FlightAware
07:49PM 41.5700 -91.3940 262° West 466 536 36,000  Level FlightAware
07:50PM 41.5570 -91.5310 263° West 463 533 36,000  Level FlightAware
07:50PM 41.5460 -91.6470 263° West 462 532 36,000  Level FlightAware
07:51PM 41.5340 -91.7690 263° West 463 533 36,000  Level FlightAware
07:52PM 41.5220 -91.8790 262° West 463 533 36,000  Level FlightAware
07:52PM 41.5080 -92.0160 262° West 464 534 36,000 240 Level FlightAware
07:55PM 41.4610 -92.4760 262° West 461 531 36,900 420 Climbing FlightAware
07:56PM 41.4470 -92.6010 262° West 460 529 37,500 660 Climbing FlightAware
07:56PM 41.4370 -92.6910 262° West 463 533 37,800 360 Climbing FlightAware
07:57PM 41.4240 -92.8150 262° West 466 536 38,000 120 Climbing FlightAware
07:58PM 41.4120 -92.9280 262° West 465 535 38,000  Level FlightAware
07:58PM 41.3980 -93.0520 261° West 464 534 38,000  Level FlightAware
07:59PM 41.3850 -93.1650 261° West 460 529 38,000  Level FlightAware
08:00PM 41.3710 -93.2910 262° West 456 525 38,000  Level FlightAware
08:01PM 41.3580 -93.4030 261° West 456 525 38,000  Level FlightAware
08:01PM 41.3470 -93.5000 261° West 455 524 38,000  Level FlightAware
08:02PM 41.3320 -93.6230 261° West 455 524 38,000  Level FlightAware
08:03PM 41.3160 -93.7640 261° West 458 527 38,000  Level FlightAware
08:03PM 41.3050 -93.8580 261° West 458 527 38,000  Level FlightAware
08:04PM 41.2930 -93.9620 261° West 459 528 38,000  Level FlightAware
08:05PM 41.2780 -94.0860 261° West 459 528 38,000  Level FlightAware
08:05PM 41.2620 -94.2060 260° West 459 528 38,000  Level FlightAware
08:06PM 41.2470 -94.3330 261° West 458 527 38,000  Level FlightAware
08:07PM 41.2330 -94.4490 261° West 458 527 38,000  Level FlightAware
08:08PM 41.2170 -94.5710 260° West 457 526 38,000  Level FlightAware
08:08PM 41.2050 -94.6640 260° West 457 526 38,000  Level FlightAware
08:09PM 41.1870 -94.8120 261° West 459 528 38,000  Level FlightAware
08:10PM 41.1710 -94.9350 260° West 458 527 38,000  Level FlightAware
08:11PM 41.1570 -95.0500 261° West 458 527 38,000  Level FlightAware
08:11PM 41.1410 -95.1720 260° West 456 525 38,000  Level FlightAware
08:12PM 41.1260 -95.2820 260° West 455 524 38,000  Level FlightAware
08:13PM 41.1100 -95.4020 260° West 452 520 38,000  Level FlightAware
08:13PM 41.0990 -95.4910 261° West 451 519 38,000  Level FlightAware
08:14PM 41.0820 -95.6110 259° West 449 517 38,000  Level FlightAware
08:15PM 41.0680 -95.7170 260° West 447 514 38,000  Level FlightAware
08:15PM 41.0550 -95.8130 260° West 445 512 38,000  Level FlightAware
08:16PM 41.0390 -95.9260 259° West 446 513 38,000  Level FlightAware
08:17PM 41.0240 -96.0350 260° West 447 514 38,000  Level FlightAware
08:17PM 41.0070 -96.1560 259° West 446 513 38,000  Level FlightAware
08:18PM 40.9920 -96.2650 260° West 445 512 38,000  Level FlightAware
08:19PM 40.9760 -96.3830 260° West 444 511 38,000  Level FlightAware
08:19PM 40.9600 -96.4880 259° West 443 510 38,000  Level FlightAware
08:20PM 40.9450 -96.5950 260° West 442 509 38,000  Level FlightAware
08:21PM 40.9320 -96.6840 259° West 442 509 38,000  Level FlightAware
08:21PM 40.9120 -96.8060 258° West 444 511 38,000  Level FlightAware
08:22PM 40.8950 -96.8980 256° West 443 510 38,000  Level FlightAware
08:23PM 40.8760 -97.0040 257° West 441 507 38,000  Level FlightAware
08:23PM 40.8570 -97.1080 256° West 439 505 38,000  Level FlightAware
08:24PM 40.8370 -97.2140 256° West 437 503 38,000  Level FlightAware
08:25PM 40.8180 -97.3150 256° West 436 502 38,000  Level FlightAware
08:25PM 40.7990 -97.4180 256° West 435 501 38,000  Level FlightAware
08:26PM 40.7800 -97.5220 256° West 436 502 38,000  Level FlightAware
08:27PM 40.7580 -97.6350 256° West 440 506 38,000  Level FlightAware
08:27PM 40.7370 -97.7450 256° West 440 506 38,000  Level FlightAware
08:28PM 40.7160 -97.8550 256° West 440 506 38,000  Level FlightAware
08:29PM 40.6990 -97.9470 256° West 439 505 38,000  Level FlightAware
08:29PM 40.6790 -98.0500 256° West 438 504 38,000  Level FlightAware
08:30PM 40.6520 -98.1850 255° West 437 503 38,000  Level FlightAware
08:31PM 40.6340 -98.2730 255° West 437 503 38,000  Level FlightAware
08:32PM 40.6180 -98.3510 255° West 437 503 38,000  Level FlightAware
08:32PM 40.5970 -98.4560 255° West 437 503 38,000  Level FlightAware
08:33PM 40.5810 -98.5350 255° West 437 503 38,000  Level FlightAware
08:34PM 40.5600 -98.6400 255° West 437 503 38,000  Level FlightAware
08:34PM 40.5440 -98.7190 255° West 437 503 38,000  Level FlightAware
08:35PM 40.5160 -98.8540 255° West 437 503 38,000  Level FlightAware
08:36PM 40.5010 -98.9280 255° West 437 503 38,000  Level FlightAware
08:37PM 40.4840 -99.0090 255° West 437 503 38,000  Level FlightAware
08:37PM 40.4630 -99.1140 255° West 437 503 38,000  Level FlightAware
08:38PM 40.4470 -99.1920 255° West 437 503 38,000  Level FlightAware
08:39PM 40.4310 -99.2710 255° West 437 503 38,000  Level FlightAware
08:39PM 40.4100 -99.3750 255° West 437 503 38,000  Level FlightAware
08:40PM 40.3940 -99.4520 255° West 437 503 38,000  Level FlightAware
08:41PM 40.7250 -99.8528 255° West 420 483 38,000  Level Denver Center
08:42PM 40.7369 -99.9989 276° West 420 483 38,000  Level Denver Center
08:43PM 40.7503 -100.1708 276° West 421 484 38,000  Level Denver Center
08:44PM 40.7614 -100.3169 276° West 421 484 38,000  Level Denver Center
08:45PM 40.7719 -100.4619 276° West 415 478 38,000  Level Denver Center
08:46PM 40.7814 -100.6303 274° West 411 473 38,000  Level Denver Center
08:47PM 40.7572 -100.7956 259° West 430 495 38,000  Level Denver Center
08:48PM 40.7344 -100.9353 258° West 426 490 38,000  Level Denver Center
08:54PM 40.5980 -101.7340 258° West 417 480 38,000  Level FlightAware
08:54PM 40.5770 -101.8520 257° West 421 484 38,000  Level FlightAware
08:55PM 40.5610 -101.9380 256° West 422 486 38,000  Level FlightAware
08:56PM 40.5430 -102.0390 257° West 423 487 38,000  Level FlightAware
08:56PM 40.5250 -102.1370 256° West 424 488 38,000  Level FlightAware
08:57PM 40.5070 -102.2390 257° West 426 490 38,000  Level FlightAware
08:58PM 40.4900 -102.3310 256° West 427 491 38,000  Level FlightAware
08:58PM 40.4700 -102.4420 257° West 429 494 38,000  Level FlightAware
08:59PM 40.4510 -102.5430 256° West 430 495 38,000  Level FlightAware
09:00PM 40.4300 -102.6550 256° West 431 496 38,000 -540 Level FlightAware
09:00PM 40.4100 -102.7610 256° West 431 496 37,300 -2,160 Descending FlightAware
09:01PM 40.3910 -102.8640 256° West 441 507 35,100 -2,640 Descending FlightAware
09:02PM 40.3690 -102.9790 256° West 441 507 33,600 -2,340 Descending FlightAware
09:03PM 40.3500 -103.0820 256° West 440 506 31,900 -2,400 Descending FlightAware
09:03PM 40.3280 -103.1940 256° West 431 496 30,300 -2,220 Descending FlightAware
09:04PM 40.3090 -103.2950 256° West 424 488 28,800 -2,220 Descending FlightAware
09:05PM 40.2890 -103.4020 256° West 417 480 27,200 -2,160 Descending FlightAware
09:05PM 40.2700 -103.5000 256° West 408 470 25,800 -2,100 Descending FlightAware
09:06PM 40.2510 -103.5940 255° West 400 460 24,400 -2,100 Descending FlightAware
09:07PM 40.2300 -103.7020 256° West 392 451 22,800 -1,800 Descending FlightAware
09:07PM 40.2120 -103.7920 255° West 372 428 21,900 -1,200 Descending FlightAware
09:08PM 40.1870 -103.8800 250° West 351 404 21,200 -1,260 Descending FlightAware
09:09PM 40.1530 -103.9560 240° Southwest 348 400 20,100 -1,620 Descending FlightAware
09:09PM 40.1230 -104.0200 239° Southwest 345 397 19,100 -1,680 Descending FlightAware
09:10PM 40.0900 -104.0900 238° Southwest 340 391 18,000 -1,680 Descending FlightAware
09:11PM 40.0510 -104.1740 239° Southwest 331 381 16,700 -1,620 Descending FlightAware
09:12PM 40.0170 -104.2480 239° Southwest 324 373 15,600 -1,560 Descending FlightAware
09:12PM 39.9870 -104.3120 239° Southwest 318 366 14,600 -1,500 Descending FlightAware
09:13PM 39.9560 -104.3790 239° Southwest 314 361 13,600 -1,560 Descending FlightAware
09:14PM 39.9260 -104.4440 239° Southwest 309 356 12,500 -1,620 Descending FlightAware
09:14PM 39.9030 -104.4850 234° Southwest 308 354 11,800 -1,320 Descending FlightAware
09:14PM 39.8850 -104.4970 207° Southwest 305 351 11,600 -960 Descending FlightAware
09:15PM 39.8680 -104.5000 188° South 300 345 11,400 -720 Descending FlightAware
09:15PM 39.8120 -104.5010 181° South 278 320 11,000 -300 Descending FlightAware
09:16PM 39.7590 -104.5020 181° South 242 278 11,000 -360 Level FlightAware
09:17PM 39.7140 -104.5020 180° South 234 269 10,500 -1,020 Descending FlightAware
09:17PM 39.6840 -104.5090 190° South 238 274 9,800 -1,620 Descending FlightAware
09:17PM 39.6750 -104.5220 228° Southwest 234 269 9,400 -1,500 Descending FlightAware
09:18PM 39.6650 -104.5550 249° West 232 267 8,900 -1,200 Descending FlightAware
09:18PM 39.6570 -104.5840 250° West 223 257 8,500 -960 Descending FlightAware
09:19PM 39.6700 -104.6140 299° West 206 237 8,100 -1,140 Descending FlightAware
09:19PM 39.6840 -104.6210 339° North 204 235 7,700 -1,140 Descending FlightAware
09:19PM 39.7040 -104.6280 345° North 200 230 7,400 -1,020 Descending FlightAware
09:20PM 39.7210 -104.6330 347° North 199 229 7,000 -540 Descending FlightAware
09:20PM 39.7460 -104.6410 346° North 192 221 7,000 -300 Level FlightAware
09:20PM 39.7600 -104.6430 354° North 185 213 6,800 -840 Descending FlightAware
09:21PM 39.7760 -104.6420 North 170 196 6,500 -960 Descending FlightAware
09:21PM 39.7860 -104.6420 360° North 159 183 6,300 -1,080 Descending FlightAware
09:21PM 39.7970 -104.6420 360° North 161 185 6,000 -1,020 Descending FlightAware
09:21PM 39.8120 -104.6420 360° North 161 185 5,700 -540 Descending FlightAware
09:22PM 39.8470 -104.6420 360° North 167 192 5,400 -360 Descending FlightAware
09:26PM 39.8650 -104.6610 321° Northwest 29 33 -1,380 Descending FlightAware
09:26PM 39.8650 -104.6620 270° West 15 17  Level FlightAware
09:30PM 39.8500 -104.6667 322° Northwest  Level FlightAware Approximate
09:31PM 39.8617 -104.6732 322° Northwest  Level Estimated
09:32PM 39.8617 -104.6732 322° Northwest  Level Estimated